Orbital elements of FENGYUN 1C DEB
| Launched | 9 May 1999 |
| Flight ended | – |
| Launch site | Taiyuan Space Center, PRC |
| Owner | People's Republic of China |
| NORAD ID | 29769 |
| Date fetched |
Epoch osculation |
Inc. [°] |
Ecc. | RA asc node [hr] |
Arg Peri. [°] |
Mean anom [°] |
Mean motion [rev/day] |
Abs. mag |
| Date fetched |
Epoch osculation |
Inc. [°] |
Ecc. | RA asc node [hr] |
Arg Peri. [°] |
Mean anom [°] |
Mean motion [rev/day] |
Abs. mag |
| 2026 May 08 17:57 | 2026 May 04 23:06:49 | 99.0903 | 0.00941 | 12.6530 | 87.5544 | 273.6401 | 14.14270 | – |
| 2026 May 07 17:58 | 2026 May 04 23:06:49 | 99.0903 | 0.00941 | 12.6530 | 87.5544 | 273.6401 | 14.14270 | – |
| 2026 May 06 17:57 | 2026 May 04 23:06:49 | 99.0903 | 0.00941 | 12.6530 | 87.5544 | 273.6401 | 14.14270 | – |
| 2026 May 05 17:57 | 2026 May 04 23:06:49 | 99.0903 | 0.00941 | 12.6530 | 87.5544 | 273.6401 | 14.14270 | – |
| 2026 May 04 17:57 | 2026 Apr 28 15:59:46 | 99.0912 | 0.00946 | 12.2258 | 104.9974 | 273.6401 | 14.14270 | – |
| 2026 May 03 17:57 | 2026 Apr 28 15:59:46 | 99.0912 | 0.00946 | 12.2258 | 104.9974 | 273.6401 | 14.14270 | – |
| 2026 May 02 17:57 | 2026 Apr 28 15:59:46 | 99.0912 | 0.00946 | 12.2258 | 104.9974 | 273.6401 | 14.14270 | – |
| 2026 May 01 17:56 | 2026 Apr 28 15:59:46 | 99.0912 | 0.00946 | 12.2258 | 104.9974 | 273.6401 | 14.14270 | – |
| 2026 Apr 30 17:56 | 2026 Apr 28 15:59:46 | 99.0912 | 0.00946 | 12.2258 | 104.9974 | 273.6401 | 14.14270 | – |
| 2026 Apr 29 17:57 | 2026 Apr 24 03:19:29 | 99.0913 | 0.00949 | 11.9186 | 117.4645 | 273.6401 | 14.14270 | – |
| 2026 Apr 28 17:56 | 2026 Apr 24 03:19:29 | 99.0913 | 0.00949 | 11.9186 | 117.4645 | 273.6401 | 14.14270 | – |
| 2026 Apr 27 17:58 | 2026 Apr 24 03:19:29 | 99.0913 | 0.00949 | 11.9186 | 117.4645 | 273.6401 | 14.14270 | – |
| 2026 Apr 26 17:58 | 2026 Apr 24 03:19:29 | 99.0913 | 0.00949 | 11.9186 | 117.4645 | 273.6401 | 14.14270 | – |
| 2026 Apr 25 17:58 | 2026 Apr 24 03:19:29 | 99.0913 | 0.00949 | 11.9186 | 117.4645 | 273.6401 | 14.14270 | – |
| 2026 Apr 24 17:59 | 2026 Apr 24 03:19:29 | 99.0913 | 0.00949 | 11.9186 | 117.4645 | 273.6401 | 14.14270 | – |
| 2026 Apr 23 17:57 | 2026 Apr 19 09:33:28 | 99.0917 | 0.00950 | 11.5970 | 130.5080 | 273.6401 | 14.14270 | – |
| 2026 Apr 22 17:57 | 2026 Apr 19 09:33:28 | 99.0917 | 0.00950 | 11.5970 | 130.5080 | 273.6401 | 14.14270 | – |
| 2026 Apr 21 17:57 | 2026 Apr 19 09:33:28 | 99.0917 | 0.00950 | 11.5970 | 130.5080 | 273.6401 | 14.14270 | – |
| 2026 Apr 20 17:57 | 2026 Apr 19 09:33:28 | 99.0917 | 0.00950 | 11.5970 | 130.5080 | 273.6401 | 14.14270 | – |
| 2026 Apr 19 17:58 | 2026 Apr 19 09:33:28 | 99.0917 | 0.00950 | 11.5970 | 130.5080 | 273.6401 | 14.14270 | – |
| 2026 Apr 18 17:56 | 2026 Apr 12 14:32:44 | 99.0919 | 0.00951 | 11.1362 | 149.1985 | 273.6401 | 14.14270 | – |
| 2026 Apr 16 17:57 | 2026 Apr 12 14:32:44 | 99.0919 | 0.00951 | 11.1362 | 149.1985 | 273.6401 | 14.14270 | – |
| 2026 Apr 14 17:57 | 2026 Apr 12 14:32:44 | 99.0919 | 0.00951 | 11.1362 | 149.1985 | 273.6401 | 14.14270 | – |
| 2026 Apr 13 17:57 | 2026 Apr 12 14:32:44 | 99.0919 | 0.00951 | 11.1362 | 149.1985 | 273.6401 | 14.14270 | – |
| 2026 Apr 12 17:57 | 2026 Apr 08 15:27:13 | 99.0915 | 0.00950 | 10.8674 | 160.1556 | 273.6401 | 14.14270 | – |
| 2026 Apr 11 17:57 | 2026 Apr 08 15:27:13 | 99.0915 | 0.00950 | 10.8674 | 160.1556 | 273.6401 | 14.14270 | – |